Time;durP1;ratioP1;P1;durP2;ratioP2;P2;SDS_P1;SDS_P2;PMS_P1;PMS_P2;Temp;Humidity;BMP_temperature;BMP_pressure;BME280_temperature;BME280_humidity;BME280_pressure;Samples;Min_cycle;Max_cycle;Signal;HPM_P1;HPM_P2
2021/01/22 00:02:16;;;;;;;449.37;225.67;;;12.50;99.90;;;;;;5014270;28;20430;-79
2021/01/22 00:04:45;;;;;;;448.70;235.05;;;12.50;99.90;;;;;;5018238;28;22662;-79
2021/01/22 00:07:11;;;;;;;;;;;12.50;99.90;;;;;;5032173;28;20425;-80
2021/01/22 00:09:38;;;;;;;;;;;12.50;99.90;;;;;;5035469;28;21131;-80
2021/01/22 00:12:06;;;;;;;;;;;12.50;99.90;;;;;;5032707;28;20431;-80
2021/01/22 00:14:33;;;;;;;442.08;211.02;;;12.50;99.90;;;;;;5038373;28;20424;-79
2021/01/22 00:17:00;;;;;;;445.40;227.20;;;12.60;99.90;;;;;;5033375;28;22388;-79
2021/01/22 00:19:29;;;;;;;437.50;181.88;;;12.50;99.90;;;;;;5015170;28;20421;-80
2021/01/22 00:21:55;;;;;;;434.87;180.67;;;12.60;99.90;;;;;;5031918;28;20448;-78
2021/01/22 00:24:22;;;;;;;435.65;183.32;;;12.60;99.90;;;;;;5052148;28;20427;-79
2021/01/22 00:26:49;;;;;;;433.30;175.77;;;12.60;99.90;;;;;;5039334;28;20429;-79
2021/01/22 00:29:17;;;;;;;429.80;162.38;;;12.50;99.90;;;;;;5015409;28;20463;-79
2021/01/22 00:31:44;;;;;;;434.15;180.68;;;12.50;99.90;;;;;;5024212;28;20442;-78
2021/01/22 00:34:11;;;;;;;432.25;179.82;;;12.50;99.90;;;;;;5044664;28;20430;-79
2021/01/22 00:36:38;;;;;;;;;;;12.60;99.90;;;;;;5029874;28;20433;-79
2021/01/22 00:39:05;;;;;;;443.00;259.40;;;12.60;99.90;;;;;;5011062;28;20413;-77
2021/01/22 00:41:32;;;;;;;;;;;12.60;99.90;;;;;;4996992;28;21278;-77
2021/01/22 00:43:59;;;;;;;432.20;190.80;;;12.50;99.90;;;;;;5032058;28;20403;-78
2021/01/22 00:46:27;;;;;;;430.93;175.97;;;12.50;99.90;;;;;;5027319;28;20452;-77
2021/01/22 00:48:54;;;;;;;433.25;205.90;;;12.50;99.90;;;;;;4994882;28;20417;-77
2021/01/22 00:51:21;;;;;;;431.60;182.60;;;12.50;99.90;;;;;;5015229;28;20435;-77
2021/01/22 00:53:48;;;;;;;;;;;12.60;99.90;;;;;;5000066;28;20444;-77
2021/01/22 00:56:15;;;;;;;431.65;190.45;;;12.60;99.90;;;;;;5017148;28;20428;-77
2021/01/22 00:58:41;;;;;;;;;;;12.60;99.90;;;;;;5026444;28;20555;-78
2021/01/22 01:01:08;;;;;;;;;;;12.60;99.90;;;;;;5010160;28;20747;-77
2021/01/22 01:03:36;;;;;;;434.23;188.02;;;12.50;99.90;;;;;;5015838;28;20226;-78
2021/01/22 01:06:04;;;;;;;427.23;164.98;;;12.50;99.90;;;;;;4996552;28;20439;-78
2021/01/22 01:08:31;;;;;;;427.55;160.82;;;12.50;99.90;;;;;;5000343;28;20433;-78
2021/01/22 01:10:58;;;;;;;429.83;171.43;;;12.50;99.90;;;;;;4997013;28;20422;-77
2021/01/22 01:13:24;;;;;;;431.02;170.57;;;12.60;99.90;;;;;;5032058;28;20436;-77
2021/01/22 01:15:51;;;;;;;432.90;176.57;;;12.50;99.90;;;;;;5027456;28;20433;-78
2021/01/22 01:18:19;;;;;;;435.92;190.90;;;12.60;99.90;;;;;;5013527;28;20459;-77
2021/01/22 01:20:47;;;;;;;436.17;184.68;;;12.60;99.90;;;;;;5015417;28;20490;-77
2021/01/22 01:23:15;;;;;;;435.40;182.80;;;12.50;99.90;;;;;;5028190;28;20441;-77
2021/01/22 01:25:42;;;;;;;433.75;160.80;;;12.60;99.90;;;;;;5023738;28;20986;-78
2021/01/22 01:28:10;;;;;;;424.08;145.23;;;12.50;99.90;;;;;;5005179;28;20437;-78
2021/01/22 01:30:38;;;;;;;425.95;147.45;;;12.60;99.90;;;;;;5009611;28;20431;-78
2021/01/22 01:33:05;;;;;;;429.47;149.43;;;12.60;99.90;;;;;;5000465;28;20433;-78
2021/01/22 01:35:32;;;;;;;428.93;151.97;;;12.50;99.90;;;;;;5011692;28;20462;-78
2021/01/22 01:38:00;;;;;;;427.63;149.52;;;12.50;99.90;;;;;;5010342;28;20429;-78
2021/01/22 01:40:27;;;;;;;424.95;147.82;;;12.50;99.90;;;;;;5011767;28;20556;-78
2021/01/22 01:42:55;;;;;;;423.90;148.67;;;12.60;99.90;;;;;;5021818;28;20455;-79
2021/01/22 01:45:22;;;;;;;425.17;153.05;;;12.60;99.90;;;;;;5009352;28;20507;-78
2021/01/22 01:47:49;;;;;;;421.10;146.18;;;12.60;99.90;;;;;;5010689;28;20429;-78
2021/01/22 01:50:16;;;;;;;424.50;151.27;;;12.60;99.90;;;;;;4997356;28;20437;-78
2021/01/22 01:52:44;;;;;;;428.77;156.30;;;12.70;99.90;;;;;;4998962;28;20433;-78
2021/01/22 01:55:12;;;;;;;438.73;167.80;;;12.70;99.90;;;;;;4994295;28;20432;-78
2021/01/22 01:57:40;;;;;;;437.48;163.10;;;12.70;99.90;;;;;;5044013;28;20455;-78
2021/01/22 02:00:09;;;;;;;424.80;152.82;;;12.70;99.90;;;;;;5014398;28;20447;-79
2021/01/22 02:02:35;;;;;;;425.23;153.55;;;12.70;99.90;;;;;;5033264;28;20425;-78
2021/01/22 02:05:03;;;;;;;424.83;152.23;;;12.70;99.90;;;;;;5026384;28;20441;-78
2021/01/22 02:07:30;;;;;;;424.48;150.23;;;12.70;99.90;;;;;;5000651;28;20438;-78
2021/01/22 02:09:57;;;;;;;427.03;155.20;;;12.70;99.90;;;;;;4997617;28;20435;-77
2021/01/22 02:12:25;;;;;;;427.92;157.02;;;12.70;99.90;;;;;;5002021;28;20429;-77
2021/01/22 02:14:55;;;;;;;430.17;160.07;;;12.70;99.90;;;;;;5016913;28;20433;-77
2021/01/22 02:17:22;;;;;;;426.90;154.25;;;12.70;99.90;;;;;;5029229;28;20456;-78
2021/01/22 02:20:02;;;;;;;426.70;158.30;;;12.70;99.90;;;;;;5012496;28;20430;-77
2021/01/22 02:22:29;;;;;;;426.35;153.35;;;12.70;99.90;;;;;;5047314;28;20429;-77
2021/01/22 02:24:58;;;;;;;423.15;153.32;;;12.70;99.90;;;;;;5027503;28;20438;-78
2021/01/22 02:27:26;;;;;;;422.80;145.52;;;12.70;99.90;;;;;;5021744;28;20455;-78
2021/01/22 02:29:54;;;;;;;420.83;146.55;;;12.60;99.90;;;;;;5029489;28;20425;-78
2021/01/22 02:32:22;;;;;;;423.92;143.52;;;12.60;99.90;;;;;;5011160;28;20454;-78
2021/01/22 02:34:53;;;;;;;422.42;145.23;;;12.60;99.90;;;;;;5050279;28;20479;-78
2021/01/22 02:37:20;;;;;;;423.77;147.27;;;12.60;99.90;;;;;;5034779;28;20429;-78
2021/01/22 02:39:51;;;;;;;423.90;146.77;;;12.60;99.90;;;;;;5033537;28;20436;-78
2021/01/22 02:42:20;;;;;;;424.30;153.20;;;12.60;99.90;;;;;;5036465;28;20487;-78
2021/01/22 02:44:48;;;;;;;425.52;154.25;;;12.60;99.90;;;;;;5038041;28;20432;-78
2021/01/22 02:47:16;;;;;;;425.63;159.57;;;12.60;99.90;;;;;;5036940;28;20428;-78
2021/01/22 02:49:43;;;;;;;421.75;156.60;;;12.60;99.90;;;;;;5016114;28;20808;-78
2021/01/22 02:52:10;;;;;;;423.95;165.60;;;12.60;99.90;;;;;;5036734;28;20427;-78
2021/01/22 02:54:37;;;;;;;;;;;12.60;99.90;;;;;;5002655;28;20443;-77
2021/01/22 02:57:19;;;;;;;429.40;176.20;;;12.60;99.90;;;;;;5033543;28;20451;-77
2021/01/22 02:59:48;;;;;;;;;;;12.60;99.90;;;;;;5033650;28;20422;-78
2021/01/22 03:02:18;;;;;;;;;;;12.60;99.90;;;;;;5037350;28;20449;-79
2021/01/22 03:04:47;;;;;;;435.25;213.50;;;12.60;99.90;;;;;;5032344;28;20427;-78
2021/01/22 03:07:17;;;;;;;;;;;12.60;99.90;;;;;;4998930;28;20418;-79
2021/01/22 03:09:44;;;;;;;;;;;12.60;99.90;;;;;;5034298;28;20411;-78
2021/01/22 03:12:13;;;;;;;424.20;152.13;;;12.60;99.90;;;;;;5034669;28;25108;-78
2021/01/22 03:14:41;;;;;;;425.10;148.20;;;12.60;99.90;;;;;;5018082;28;20530;-78
2021/01/22 03:17:09;;;;;;;425.50;149.40;;;12.60;99.90;;;;;;5020591;28;20436;-77
2021/01/22 03:19:47;;;;;;;426.35;150.88;;;12.60;99.90;;;;;;5027880;28;20506;-78
2021/01/22 03:22:15;;;;;;;424.65;149.18;;;12.60;99.90;;;;;;5002208;28;20430;-78
2021/01/22 03:24:43;;;;;;;422.13;145.90;;;12.60;99.90;;;;;;5028863;28;20460;-77
2021/01/22 03:27:10;;;;;;;417.20;140.60;;;12.60;99.90;;;;;;5032104;28;20433;-78
2021/01/22 03:29:37;;;;;;;421.55;146.02;;;12.60;99.90;;;;;;5000985;28;20425;-78
2021/01/22 03:32:05;;;;;;;424.65;149.35;;;12.50;99.90;;;;;;5036832;28;20540;-77
2021/01/22 03:34:32;;;;;;;424.40;156.17;;;12.60;99.90;;;;;;5014421;28;20433;-77
2021/01/22 03:37:01;;;;;;;424.20;155.07;;;12.60;99.90;;;;;;5033543;28;20444;-77
2021/01/22 03:39:29;;;;;;;429.88;158.73;;;12.60;99.90;;;;;;5019862;28;20517;-78
2021/01/22 03:41:56;;;;;;;427.33;156.82;;;12.50;99.90;;;;;;5018396;28;20429;-78
2021/01/22 03:44:23;;;;;;;432.40;164.57;;;12.60;99.90;;;;;;5018647;28;20417;-78
2021/01/22 03:46:50;;;;;;;430.40;175.45;;;12.60;99.90;;;;;;4999279;28;21764;-78
2021/01/22 03:49:17;;;;;;;427.73;166.38;;;12.60;99.90;;;;;;5000362;28;20773;-78
2021/01/22 03:51:45;;;;;;;427.15;165.30;;;12.60;99.90;;;;;;5001607;28;20425;-78
2021/01/22 03:54:12;;;;;;;;;;;12.60;99.90;;;;;;5016295;28;20425;-77
2021/01/22 03:56:39;;;;;;;428.60;195.35;;;12.60;99.90;;;;;;5030485;28;20452;-78
2021/01/22 03:59:06;;;;;;;;;;;12.60;99.90;;;;;;5013175;28;20421;-78
2021/01/22 04:01:33;;;;;;;432.15;240.60;;;12.50;99.90;;;;;;5026131;28;20424;-77
2021/01/22 04:04:00;;;;;;;416.65;150.93;;;12.60;99.90;;;;;;5002335;28;20418;-77
2021/01/22 04:06:28;;;;;;;419.45;160.10;;;12.60;99.90;;;;;;5002781;28;21196;-77
2021/01/22 04:08:55;;;;;;;418.95;158.48;;;12.60;99.90;;;;;;5015058;28;20443;-77
2021/01/22 04:11:23;;;;;;;418.88;153.85;;;12.60;99.90;;;;;;4999010;28;20440;-78
2021/01/22 04:13:50;;;;;;;435.38;164.60;;;12.60;99.90;;;;;;5016891;28;20433;-77
2021/01/22 04:16:17;;;;;;;435.63;171.00;;;12.60;99.90;;;;;;5004314;28;20424;-78
2021/01/22 04:18:44;;;;;;;435.52;168.57;;;12.60;99.90;;;;;;5028577;28;20432;-77
2021/01/22 04:21:11;;;;;;;436.05;172.25;;;12.60;99.90;;;;;;5012252;28;20425;-77
2021/01/22 04:23:38;;;;;;;433.38;164.32;;;12.60;99.90;;;;;;5020611;28;20437;-77
2021/01/22 04:26:06;;;;;;;435.15;169.05;;;12.60;99.90;;;;;;5029621;28;20900;-78
2021/01/22 04:28:34;;;;;;;437.70;178.82;;;12.60;99.90;;;;;;5011024;28;20448;-78
2021/01/22 04:31:01;;;;;;;435.63;173.82;;;12.60;99.90;;;;;;4997793;28;20433;-77
2021/01/22 04:33:28;;;;;;;432.55;166.23;;;12.50;99.90;;;;;;4996931;28;20433;-77
2021/01/22 04:35:55;;;;;;;427.33;158.07;;;12.60;99.90;;;;;;5015143;28;20429;-77
2021/01/22 04:38:22;;;;;;;434.03;167.13;;;12.60;99.90;;;;;;5004260;28;20449;-77
2021/01/22 04:40:51;;;;;;;431.27;165.13;;;12.60;99.90;;;;;;5033730;28;20425;-78
2021/01/22 04:43:18;;;;;;;430.70;160.82;;;12.60;99.90;;;;;;5014359;28;21057;-77
2021/01/22 04:45:46;;;;;;;431.60;162.55;;;12.60;99.90;;;;;;5029201;28;20457;-77
2021/01/22 04:48:13;;;;;;;436.77;170.50;;;12.60;99.90;;;;;;5014699;28;20907;-78
2021/01/22 04:50:42;;;;;;;428.33;151.45;;;12.60;99.90;;;;;;4993067;28;20470;-78
2021/01/22 04:53:11;;;;;;;431.90;160.45;;;12.60;99.90;;;;;;5033955;28;20420;-78
2021/01/22 04:55:43;;;;;;;433.92;159.05;;;12.60;99.90;;;;;;5017769;28;20497;-78
2021/01/22 04:58:12;;;;;;;431.48;155.40;;;12.60;99.90;;;;;;5034644;28;20437;-78
2021/01/22 05:00:40;;;;;;;431.15;156.80;;;12.50;99.90;;;;;;5028106;28;20477;-78
2021/01/22 05:03:09;;;;;;;436.40;168.60;;;12.60;99.90;;;;;;5015637;28;20527;-77
2021/01/22 05:05:36;;;;;;;438.92;180.30;;;12.50;99.90;;;;;;5013660;28;20425;-77
2021/01/22 05:08:04;;;;;;;436.90;169.98;;;12.60;99.90;;;;;;5029713;28;20433;-78
2021/01/22 05:10:31;;;;;;;430.42;150.70;;;12.50;99.90;;;;;;5015469;28;20437;-77
2021/01/22 05:12:58;;;;;;;428.00;151.63;;;12.60;99.90;;;;;;5014278;28;20836;-77
2021/01/22 05:15:28;;;;;;;436.00;162.77;;;12.60;99.90;;;;;;5015436;28;20420;-77
2021/01/22 05:17:57;;;;;;;438.00;165.38;;;12.60;99.90;;;;;;5014883;28;20437;-77
2021/01/22 05:20:33;;;;;;;446.08;188.23;;;12.60;99.90;;;;;;5031916;28;20447;-77
2021/01/22 05:23:02;;;;;;;444.08;188.45;;;12.50;99.90;;;;;;5014628;28;20425;-77
2021/01/22 05:25:31;;;;;;;442.23;190.13;;;12.60;99.90;;;;;;4991513;28;21702;-77
2021/01/22 05:27:59;;;;;;;445.08;202.25;;;12.60;99.90;;;;;;5031304;28;20429;-77
2021/01/22 05:30:28;;;;;;;445.25;192.15;;;12.50;99.90;;;;;;5015076;28;20431;-77
2021/01/22 05:33:15;;;;;;;449.40;209.93;;;12.60;99.90;;;;;;5032492;28;20436;-77
2021/01/22 05:35:43;;;;;;;446.23;209.93;;;12.50;99.90;;;;;;5052247;28;20442;-77
2021/01/22 05:38:10;;;;;;;447.95;207.65;;;12.60;99.90;;;;;;5031361;28;20429;-77
2021/01/22 05:40:37;;;;;;;450.05;233.15;;;12.60;99.90;;;;;;5000685;28;20433;-77
2021/01/22 05:43:05;;;;;;;454.10;245.48;;;12.50;99.90;;;;;;5000949;28;20435;-77
2021/01/22 05:45:40;;;;;;;450.83;240.50;;;12.50;99.90;;;;;;4997836;28;20455;-79
2021/01/22 05:48:16;;;;;;;;;;;12.60;99.90;;;;;;5044849;28;21204;-78
2021/01/22 05:50:48;;;;;;;;;;;12.50;99.90;;;;;;5027735;28;20410;-78
2021/01/22 05:53:17;;;;;;;445.88;205.00;;;12.50;99.90;;;;;;5017674;28;20469;-79
2021/01/22 05:55:43;;;;;;;443.03;190.67;;;12.50;99.90;;;;;;5035699;28;20485;-78
2021/01/22 05:58:26;;;;;;;446.40;194.25;;;12.60;99.90;;;;;;5031393;28;20437;-78
2021/01/22 06:01:06;;;;;;;448.02;209.48;;;12.60;99.90;;;;;;5031869;28;21106;-78
2021/01/22 06:03:33;;;;;;;446.03;208.47;;;12.60;99.90;;;;;;5031524;28;20475;-77
2021/01/22 06:06:02;;;;;;;444.27;193.10;;;12.50;99.90;;;;;;5050129;28;20788;-78
2021/01/22 06:08:30;;;;;;;444.92;198.60;;;12.60;99.90;;;;;;5015267;28;20429;-78
2021/01/22 06:10:58;;;;;;;445.83;227.40;;;12.60;99.90;;;;;;5028211;28;20508;-78
2021/01/22 06:13:27;;;;;;;447.25;217.50;;;12.60;99.90;;;;;;5012782;28;20515;-78
2021/01/22 06:15:55;;;;;;;449.40;250.25;;;12.60;99.90;;;;;;5029799;28;20432;-79
2021/01/22 06:18:23;;;;;;;;;;;12.50;99.90;;;;;;5053092;28;20428;-79
2021/01/22 06:20:51;;;;;;;;;;;12.60;99.90;;;;;;5030633;28;20438;-78
2021/01/22 06:23:19;;;;;;;;;;;12.50;99.90;;;;;;5032804;28;20431;-77
2021/01/22 06:25:46;;;;;;;;;;;12.50;99.90;;;;;;5028653;28;25125;-78
2021/01/22 06:28:14;;;;;;;444.02;210.55;;;12.50;99.90;;;;;;5016803;28;25078;-77
2021/01/22 06:30:41;;;;;;;449.00;235.35;;;12.50;99.90;;;;;;5015271;28;20418;-77
2021/01/22 06:33:08;;;;;;;;;;;12.50;99.90;;;;;;5009455;28;20441;-77
2021/01/22 06:35:37;;;;;;;437.13;168.63;;;12.60;99.90;;;;;;5012089;28;20445;-77
2021/01/22 06:38:06;;;;;;;443.70;188.90;;;12.50;99.90;;;;;;5009916;28;20441;-77
2021/01/22 06:40:33;;;;;;;443.43;180.97;;;12.50;99.90;;;;;;5030117;28;20482;-77
2021/01/22 06:43:02;;;;;;;443.60;184.82;;;12.50;99.90;;;;;;5031095;28;20441;-78
2021/01/22 06:45:29;;;;;;;441.73;175.63;;;12.60;99.90;;;;;;5010263;28;20433;-80
2021/01/22 06:48:00;;;;;;;438.95;168.45;;;12.50;99.90;;;;;;5013396;28;20504;-79
2021/01/22 06:50:28;;;;;;;440.15;179.10;;;12.50;99.90;;;;;;5015747;28;20425;-76
2021/01/22 06:53:10;;;;;;;444.17;203.48;;;12.50;99.90;;;;;;4995562;28;21198;-77
2021/01/22 06:56:11;;;;;;;444.63;201.07;;;12.50;99.90;;;;;;5027321;28;20432;-77
2021/01/22 06:58:38;;;;;;;443.00;200.27;;;12.60;99.90;;;;;;5007985;28;20458;-77
2021/01/22 07:01:33;;;;;;;449.20;227.30;;;12.60;99.90;;;;;;5008590;28;20429;-77
2021/01/22 07:04:01;;;;;;;450.95;243.63;;;12.50;99.90;;;;;;5022346;28;20439;-76
2021/01/22 07:06:54;;;;;;;444.05;191.52;;;12.50;99.90;;;;;;5032388;28;20435;-76
2021/01/22 07:09:21;;;;;;;447.48;200.02;;;12.50;99.90;;;;;;5054403;28;20430;-76
2021/01/22 07:11:59;;;;;;;447.73;218.63;;;12.50;99.90;;;;;;5049516;28;20437;-76
2021/01/22 07:14:34;;;;;;;445.77;205.70;;;12.60;99.90;;;;;;5037024;28;20417;-76
2021/01/22 07:17:05;;;;;;;449.85;215.98;;;12.50;99.90;;;;;;5035342;28;20429;-76
2021/01/22 07:19:33;;;;;;;447.17;199.80;;;12.50;99.90;;;;;;5019895;28;20475;-76
2021/01/22 07:22:02;;;;;;;449.30;212.00;;;12.50;99.90;;;;;;5018394;28;20429;-76
2021/01/22 07:24:29;;;;;;;451.77;220.97;;;12.50;99.90;;;;;;5053472;28;20438;-76
2021/01/22 07:26:57;;;;;;;;;;;12.50;99.90;;;;;;5040965;28;20451;-76
2021/01/22 07:29:27;;;;;;;451.55;223.48;;;12.50;99.90;;;;;;5044373;28;20616;-76
2021/01/22 07:31:56;;;;;;;;;;;12.50;99.90;;;;;;5019892;28;20429;-77
2021/01/22 07:34:42;;;;;;;;;;;12.60;99.90;;;;;;5034900;28;20486;-76
2021/01/22 07:37:11;;;;;;;449.98;221.07;;;12.60;99.90;;;;;;5050599;28;20470;-76
2021/01/22 07:39:39;;;;;;;452.70;236.70;;;12.60;99.90;;;;;;5037197;28;20446;-76
2021/01/22 07:42:07;;;;;;;453.50;218.40;;;12.60;99.90;;;;;;5014331;28;20454;-76
2021/01/22 07:44:36;;;;;;;450.75;214.70;;;12.50;99.90;;;;;;5034451;28;20437;-77
2021/01/22 07:47:03;;;;;;;448.45;205.98;;;12.60;99.90;;;;;;5020003;28;20433;-77
2021/01/22 07:49:30;;;;;;;448.63;214.98;;;12.50;99.90;;;;;;5033357;28;20429;-76
2021/01/22 07:52:01;;;;;;;448.70;228.18;;;12.50;99.90;;;;;;5000090;28;20429;-77
2021/01/22 07:54:41;;;;;;;449.00;227.70;;;12.50;99.90;;;;;;5003051;28;20919;-77
2021/01/22 07:57:17;;;;;;;438.33;171.60;;;12.60;99.90;;;;;;5038745;28;20430;-79
2021/01/22 07:59:47;;;;;;;439.83;189.90;;;12.50;99.90;;;;;;5053380;28;20478;-79
2021/01/22 08:02:16;;;;;;;441.77;196.30;;;12.50;99.90;;;;;;5017385;28;20434;-79
2021/01/22 08:04:45;;;;;;;446.30;218.18;;;12.60;99.90;;;;;;5019239;28;20446;-79
2021/01/22 08:07:11;;;;;;;;;;;12.50;99.90;;;;;;5035183;28;20435;-79
2021/01/22 08:09:51;;;;;;;;;;;12.50;99.90;;;;;;5034322;28;33181;-79
2021/01/22 08:12:18;;;;;;;;;;;12.50;99.90;;;;;;5048736;28;20481;-79
2021/01/22 08:14:46;;;;;;;445.40;216.35;;;12.50;99.90;;;;;;5021005;28;25116;-79
2021/01/22 08:17:14;;;;;;;440.58;191.85;;;12.60;99.90;;;;;;5034690;28;20447;-80
2021/01/22 08:19:42;;;;;;;443.60;210.93;;;12.50;99.90;;;;;;5017943;28;20552;-79
2021/01/22 08:22:14;;;;;;;445.83;211.00;;;12.60;99.90;;;;;;5020059;28;20431;-80
2021/01/22 08:24:49;;;;;;;442.55;206.50;;;12.50;99.90;;;;;;5030825;28;20429;-79
2021/01/22 08:27:19;;;;;;;442.17;192.02;;;12.50;99.90;;;;;;5043925;28;20425;-78
2021/01/22 08:29:47;;;;;;;438.77;180.65;;;12.50;99.90;;;;;;5029170;28;20421;-78
2021/01/22 08:32:17;;;;;;;442.52;185.80;;;12.60;99.90;;;;;;5031502;28;20425;-78
2021/01/22 08:34:44;;;;;;;435.83;168.82;;;12.50;99.90;;;;;;5031298;28;21030;-78
2021/01/22 08:37:11;;;;;;;441.48;196.77;;;12.60;99.90;;;;;;5029068;28;20417;-78
2021/01/22 08:39:49;;;;;;;442.45;189.50;;;12.50;99.90;;;;;;5015323;28;20547;-78
2021/01/22 08:42:16;;;;;;;444.08;201.65;;;12.50;99.90;;;;;;5033828;28;20427;-78
2021/01/22 08:44:55;;;;;;;447.27;227.40;;;12.60;99.90;;;;;;5010331;28;21923;-78
2021/01/22 08:47:23;;;;;;;452.88;229.93;;;12.50;99.90;;;;;;5012024;28;20429;-78
2021/01/22 08:49:54;;;;;;;;;;;12.50;99.90;;;;;;5030641;28;20546;-78
2021/01/22 08:52:20;;;;;;;;;;;12.50;99.90;;;;;;5014186;28;20454;-78
2021/01/22 08:54:49;;;;;;;;;;;12.50;99.90;;;;;;5035315;28;20827;-78
2021/01/22 08:57:16;;;;;;;449.83;234.57;;;12.50;99.90;;;;;;5031342;28;20579;-78
2021/01/22 08:59:52;;;;;;;443.35;200.75;;;12.50;99.90;;;;;;5000438;28;20429;-78
2021/01/22 09:02:42;;;;;;;441.33;208.32;;;12.60;99.90;;;;;;5017924;28;20431;-78
2021/01/22 09:05:11;;;;;;;450.60;252.00;;;12.60;99.90;;;;;;5045444;28;20456;-78
2021/01/22 09:07:38;;;;;;;455.65;247.00;;;12.60;99.90;;;;;;5049485;28;20920;-78
2021/01/22 09:10:07;;;;;;;454.75;247.63;;;12.60;99.90;;;;;;5033399;28;20505;-78
2021/01/22 09:12:34;;;;;;;455.95;261.25;;;12.60;99.90;;;;;;5026563;28;20443;-78
2021/01/22 09:15:05;;;;;;;458.48;270.55;;;12.60;99.90;;;;;;5017130;28;20446;-78
2021/01/22 09:17:36;;;;;;;;;;;12.60;99.90;;;;;;5035088;28;20536;-79
2021/01/22 09:20:08;;;;;;;457.10;251.20;;;12.60;99.90;;;;;;5035033;28;20490;-79
2021/01/22 09:22:35;;;;;;;457.45;257.45;;;12.60;99.90;;;;;;5017258;28;20841;-79
2021/01/22 09:25:04;;;;;;;448.15;205.23;;;12.60;99.90;;;;;;5034857;28;20446;-79
2021/01/22 09:27:33;;;;;;;445.38;184.45;;;12.60;99.90;;;;;;5047226;28;20496;-78
2021/01/22 09:30:00;;;;;;;441.75;177.45;;;12.60;99.90;;;;;;5032505;28;20430;-78
2021/01/22 09:32:29;;;;;;;443.23;178.03;;;12.60;99.90;;;;;;5031377;28;20421;-78
2021/01/22 09:34:56;;;;;;;447.45;189.55;;;12.60;99.90;;;;;;5013721;28;20755;-78
2021/01/22 09:37:23;;;;;;;445.73;176.95;;;12.60;99.90;;;;;;5032964;28;20433;-78
2021/01/22 09:39:50;;;;;;;447.67;184.52;;;12.60;99.90;;;;;;5034942;28;20449;-79
2021/01/22 09:42:17;;;;;;;447.27;181.30;;;12.60;99.90;;;;;;5030247;28;20521;-78
2021/01/22 09:44:44;;;;;;;444.83;174.70;;;12.60;99.90;;;;;;5016763;28;20455;-79
2021/01/22 09:47:11;;;;;;;448.30;185.73;;;12.60;99.90;;;;;;5015506;28;20433;-79
2021/01/22 09:49:39;;;;;;;449.92;188.90;;;12.60;99.90;;;;;;4996924;28;20508;-78
2021/01/22 09:52:06;;;;;;;450.67;192.07;;;12.60;99.90;;;;;;5015989;28;20440;-78
2021/01/22 09:54:33;;;;;;;449.20;177.38;;;12.60;99.90;;;;;;5016474;28;20427;-78
2021/01/22 09:57:00;;;;;;;448.27;189.55;;;12.50;99.90;;;;;;5012109;28;20496;-78
2021/01/22 09:59:27;;;;;;;450.35;197.65;;;12.60;99.90;;;;;;5033174;28;20421;-78
2021/01/22 10:01:54;;;;;;;449.63;194.23;;;12.60;99.90;;;;;;5030876;28;20751;-78
2021/01/22 10:04:21;;;;;;;449.35;195.55;;;12.60;99.90;;;;;;5028253;28;20431;-78
2021/01/22 10:06:49;;;;;;;450.10;195.00;;;12.60;99.90;;;;;;5016028;28;20433;-79
2021/01/22 10:09:17;;;;;;;451.08;196.15;;;12.60;99.90;;;;;;5001239;28;20441;-78
2021/01/22 10:11:44;;;;;;;447.85;188.27;;;12.60;99.90;;;;;;4999230;28;20436;-79
2021/01/22 10:14:11;;;;;;;447.73;191.50;;;12.60;99.90;;;;;;5025399;28;20425;-78
2021/01/22 10:16:38;;;;;;;447.20;205.30;;;12.60;99.90;;;;;;5017682;28;20628;-78
2021/01/22 10:19:05;;;;;;;449.20;239.75;;;12.60;99.90;;;;;;5030368;28;20467;-78
2021/01/22 10:21:32;;;;;;;433.85;191.65;;;12.60;99.90;;;;;;5032875;28;20544;-78
2021/01/22 10:24:00;;;;;;;450.45;202.60;;;12.60;99.90;;;;;;5000277;28;20429;-78
2021/01/22 10:26:28;;;;;;;453.20;235.20;;;12.60;99.90;;;;;;5048067;28;20842;-78
2021/01/22 10:28:54;;;;;;;447.98;189.77;;;12.60;99.90;;;;;;5014278;28;20429;-79
2021/01/22 10:31:21;;;;;;;451.03;200.13;;;12.60;99.90;;;;;;5015755;28;20423;-79
2021/01/22 10:33:48;;;;;;;455.38;216.25;;;12.60;99.90;;;;;;5012448;28;20440;-79
2021/01/22 10:36:16;;;;;;;458.27;218.23;;;12.60;99.90;;;;;;5016150;28;20440;-79
2021/01/22 10:38:44;;;;;;;454.00;200.20;;;12.60;99.90;;;;;;5029011;28;20436;-79
2021/01/22 10:41:11;;;;;;;455.58;206.13;;;12.60;99.90;;;;;;5011079;28;20419;-78
2021/01/22 10:43:38;;;;;;;452.15;199.65;;;12.60;99.90;;;;;;5031241;28;20437;-78
2021/01/22 10:46:05;;;;;;;447.88;191.02;;;12.50;99.90;;;;;;5030525;28;20440;-79
2021/01/22 10:48:32;;;;;;;443.77;196.82;;;12.60;99.90;;;;;;5035969;28;20429;-78
2021/01/22 10:50:58;;;;;;;447.92;214.65;;;12.50;99.90;;;;;;5055111;28;20537;-78
2021/01/22 10:53:25;;;;;;;448.23;216.85;;;12.50;99.90;;;;;;5050896;28;20437;-78
2021/01/22 10:55:52;;;;;;;446.63;215.45;;;12.60;99.90;;;;;;5033158;28;20437;-78
2021/01/22 10:58:19;;;;;;;;;;;12.60;99.90;;;;;;5019989;28;20947;-78
2021/01/22 11:00:47;;;;;;;;;;;12.60;99.90;;;;;;5032090;28;20435;-78
2021/01/22 11:03:13;;;;;;;;;;;12.60;99.90;;;;;;5017069;28;21035;-79
2021/01/22 11:05:39;;;;;;;;;;;12.60;99.90;;;;;;5052568;28;20441;-79
2021/01/22 11:08:06;;;;;;;;;;;12.60;99.90;;;;;;5013517;28;25067;-79
2021/01/22 11:10:33;;;;;;;;;;;12.60;99.90;;;;;;5035147;28;25121;-80
2021/01/22 11:12:59;;;;;;;439.10;194.23;;;12.60;99.90;;;;;;5051448;28;20422;-80
2021/01/22 11:15:27;;;;;;;;;;;12.60;99.90;;;;;;5033102;28;20450;-80
2021/01/22 11:17:54;;;;;;;437.13;195.23;;;12.60;99.90;;;;;;5017159;28;20531;-80
2021/01/22 11:20:21;;;;;;;434.55;187.40;;;12.60;99.90;;;;;;5031622;28;20451;-80
2021/01/22 11:22:47;;;;;;;;;;;12.60;99.90;;;;;;5034629;28;20415;-80
2021/01/22 11:25:15;;;;;;;;;;;12.60;99.90;;;;;;5034252;28;20444;-80
2021/01/22 11:27:42;;;;;;;432.00;258.90;;;12.60;99.90;;;;;;5019413;28;25148;-79
2021/01/22 11:30:11;;;;;;;448.35;220.98;;;12.60;99.90;;;;;;5018968;28;20432;-80
2021/01/22 11:32:50;;;;;;;438.90;185.02;;;12.60;99.90;;;;;;5021713;28;20464;-79
2021/01/22 11:35:17;;;;;;;433.15;162.32;;;12.50;99.90;;;;;;5016810;28;20425;-79
2021/01/22 11:37:46;;;;;;;431.85;156.30;;;12.50;99.90;;;;;;5019228;28;20455;-78
2021/01/22 11:40:16;;;;;;;436.70;157.30;;;12.50;99.90;;;;;;5058057;28;20429;-78
2021/01/22 11:42:44;;;;;;;435.00;160.93;;;12.50;99.90;;;;;;5018904;28;20434;-78
2021/01/22 11:45:11;;;;;;;432.15;156.00;;;12.60;99.90;;;;;;5034643;28;20806;-78
2021/01/22 11:47:39;;;;;;;434.33;163.23;;;12.50;99.90;;;;;;5007125;28;20513;-78
2021/01/22 11:50:07;;;;;;;;;;;12.50;99.90;;;;;;5001891;28;20726;-78
2021/01/22 11:52:35;;;;;;;451.80;261.20;;;12.50;99.90;;;;;;5031278;28;20430;-78
2021/01/22 11:55:01;;;;;;;;;;;12.60;99.90;;;;;;5012681;28;20504;-78
2021/01/22 11:57:28;;;;;;;446.77;214.23;;;12.50;99.90;;;;;;5017706;28;20928;-78
2021/01/22 11:59:56;;;;;;;447.07;216.57;;;12.50;99.90;;;;;;5000664;28;20420;-78
2021/01/22 12:02:22;;;;;;;;;;;12.50;99.90;;;;;;5014402;28;20495;-78
2021/01/22 12:04:49;;;;;;;;;;;12.50;99.90;;;;;;5023247;28;25143;-79
2021/01/22 12:07:17;;;;;;;450.40;242.50;;;12.50;99.90;;;;;;5019275;28;20441;-78
2021/01/22 12:09:44;;;;;;;444.80;208.90;;;12.50;99.90;;;;;;5015803;28;20529;-78
2021/01/22 12:12:11;;;;;;;443.20;217.10;;;12.60;99.90;;;;;;5012543;28;20425;-77
2021/01/22 12:14:38;;;;;;;;;;;12.60;99.90;;;;;;5013545;28;20419;-78
2021/01/22 12:17:04;;;;;;;;;;;12.50;99.90;;;;;;5034756;28;25085;-78
2021/01/22 12:19:32;;;;;;;451.15;228.40;;;12.60;99.90;;;;;;5033831;28;20442;-78
2021/01/22 12:21:59;;;;;;;;;;;12.50;99.90;;;;;;5031360;28;20434;-78
2021/01/22 12:24:26;;;;;;;470.80;362.00;;;12.50;99.90;;;;;;5016245;28;20444;-78
2021/01/22 12:26:54;;;;;;;448.60;235.85;;;12.50;99.90;;;;;;5015507;28;22542;-78
2021/01/22 12:29:20;;;;;;;;;;;12.60;99.90;;;;;;4992828;28;20459;-78
2021/01/22 12:31:47;;;;;;;;;;;12.50;99.90;;;;;;5014914;28;20840;-80
2021/01/22 12:34:15;;;;;;;450.40;287.90;;;12.60;99.90;;;;;;5033429;28;25070;-78